sensor_id;sensor_type;location;lat;lon;timestamp;P1;durP1;ratioP1;P2;durP2;ratioP2
62941;SDS011;49042;47.318;19.874;2023-08-21T00:00:04;14.98;;;13.38;;
62941;SDS011;49042;47.318;19.874;2023-08-21T00:03:06;15.95;;;12.75;;
62941;SDS011;49042;47.318;19.874;2023-08-21T00:06:08;14.27;;;12.88;;
62941;SDS011;49042;47.318;19.874;2023-08-21T00:09:10;15.02;;;13.43;;
62941;SDS011;49042;47.318;19.874;2023-08-21T00:12:12;22.48;;;13.02;;
62941;SDS011;49042;47.318;19.874;2023-08-21T00:15:13;16.98;;;13.00;;
62941;SDS011;49042;47.318;19.874;2023-08-21T00:18:15;15.88;;;12.77;;
62941;SDS011;49042;47.318;19.874;2023-08-21T00:21:17;15.05;;;13.18;;
62941;SDS011;49042;47.318;19.874;2023-08-21T00:24:20;19.27;;;13.43;;
62941;SDS011;49042;47.318;19.874;2023-08-21T00:27:21;18.52;;;12.43;;
62941;SDS011;49042;47.318;19.874;2023-08-21T00:30:23;15.32;;;13.15;;
62941;SDS011;49042;47.318;19.874;2023-08-21T00:33:28;14.68;;;12.75;;
62941;SDS011;49042;47.318;19.874;2023-08-21T00:36:30;15.88;;;12.68;;
62941;SDS011;49042;47.318;19.874;2023-08-21T00:39:32;20.42;;;13.25;;
62941;SDS011;49042;47.318;19.874;2023-08-21T00:42:34;15.05;;;12.77;;
62941;SDS011;49042;47.318;19.874;2023-08-21T00:45:36;16.17;;;13.07;;
62941;SDS011;49042;47.318;19.874;2023-08-21T00:48:42;15.13;;;13.40;;
62941;SDS011;49042;47.318;19.874;2023-08-21T00:51:45;16.33;;;14.07;;
62941;SDS011;49042;47.318;19.874;2023-08-21T00:54:48;16.83;;;14.63;;
62941;SDS011;49042;47.318;19.874;2023-08-21T00:57:51;17.95;;;14.50;;
62941;SDS011;49042;47.318;19.874;2023-08-21T01:00:53;18.70;;;14.75;;
62941;SDS011;49042;47.318;19.874;2023-08-21T01:03:55;20.83;;;15.02;;
62941;SDS011;49042;47.318;19.874;2023-08-21T01:06:57;19.62;;;16.20;;
62941;SDS011;49042;47.318;19.874;2023-08-21T01:16:47;20.70;;;15.60;;
62941;SDS011;49042;47.318;19.874;2023-08-21T01:19:52;19.52;;;15.13;;
62941;SDS011;49042;47.318;19.874;2023-08-21T01:22:54;21.08;;;15.00;;
62941;SDS011;49042;47.318;19.874;2023-08-21T01:25:56;19.20;;;14.87;;
62941;SDS011;49042;47.318;19.874;2023-08-21T01:28:57;20.98;;;14.15;;
62941;SDS011;49042;47.318;19.874;2023-08-21T01:32:06;17.67;;;14.80;;
62941;SDS011;49042;47.318;19.874;2023-08-21T01:35:20;20.00;;;14.32;;
62941;SDS011;49042;47.318;19.874;2023-08-21T01:38:22;18.35;;;14.85;;
62941;SDS011;49042;47.318;19.874;2023-08-21T01:41:25;17.23;;;15.43;;
62941;SDS011;49042;47.318;19.874;2023-08-21T01:44:27;16.65;;;14.90;;
62941;SDS011;49042;47.318;19.874;2023-08-21T01:47:29;23.08;;;15.70;;
62941;SDS011;49042;47.318;19.874;2023-08-21T01:50:30;18.87;;;15.38;;
62941;SDS011;49042;47.318;19.874;2023-08-21T01:53:32;19.95;;;16.70;;
62941;SDS011;49042;47.318;19.874;2023-08-21T01:56:34;19.62;;;16.20;;
62941;SDS011;49042;47.318;19.874;2023-08-21T01:59:36;19.85;;;16.77;;
62941;SDS011;49042;47.318;19.874;2023-08-21T02:02:38;20.80;;;17.27;;
62941;SDS011;49042;47.318;19.874;2023-08-21T02:05:40;18.58;;;16.62;;
62941;SDS011;49042;47.318;19.874;2023-08-21T02:08:42;20.88;;;16.62;;
62941;SDS011;49042;47.318;19.874;2023-08-21T02:11:44;21.00;;;16.80;;
62941;SDS011;49042;47.318;19.874;2023-08-21T02:14:45;21.15;;;16.30;;
62941;SDS011;49042;47.318;19.874;2023-08-21T02:17:47;19.65;;;16.95;;
62941;SDS011;49042;47.318;19.874;2023-08-21T02:20:49;21.67;;;16.87;;
62941;SDS011;49042;47.318;19.874;2023-08-21T02:23:51;21.83;;;15.77;;
62941;SDS011;49042;47.318;19.874;2023-08-21T02:26:52;21.30;;;15.65;;
62941;SDS011;49042;47.318;19.874;2023-08-21T02:29:54;16.35;;;14.75;;
62941;SDS011;49042;47.318;19.874;2023-08-21T02:32:56;21.27;;;16.40;;
62941;SDS011;49042;47.318;19.874;2023-08-21T02:35:57;17.77;;;15.93;;
62941;SDS011;49042;47.318;19.874;2023-08-21T02:38:59;20.75;;;15.80;;
62941;SDS011;49042;47.318;19.874;2023-08-21T02:42:01;26.17;;;16.23;;
62941;SDS011;49042;47.318;19.874;2023-08-21T02:45:03;19.08;;;16.37;;
62941;SDS011;49042;47.318;19.874;2023-08-21T02:48:09;25.20;;;17.23;;
62941;SDS011;49042;47.318;19.874;2023-08-21T02:51:11;19.15;;;16.58;;
62941;SDS011;49042;47.318;19.874;2023-08-21T02:54:12;21.25;;;16.87;;
62941;SDS011;49042;47.318;19.874;2023-08-21T02:57:14;19.62;;;16.77;;
62941;SDS011;49042;47.318;19.874;2023-08-21T03:00:16;18.12;;;16.23;;
62941;SDS011;49042;47.318;19.874;2023-08-21T03:03:18;19.77;;;16.20;;
62941;SDS011;49042;47.318;19.874;2023-08-21T03:06:19;18.80;;;16.90;;
62941;SDS011;49042;47.318;19.874;2023-08-21T03:09:22;21.15;;;16.75;;
62941;SDS011;49042;47.318;19.874;2023-08-21T03:12:23;18.83;;;16.60;;
62941;SDS011;49042;47.318;19.874;2023-08-21T03:15:25;20.85;;;16.35;;
62941;SDS011;49042;47.318;19.874;2023-08-21T03:18:31;18.42;;;16.37;;
62941;SDS011;49042;47.318;19.874;2023-08-21T03:21:33;18.30;;;15.98;;
62941;SDS011;49042;47.318;19.874;2023-08-21T03:24:35;20.48;;;17.17;;
62941;SDS011;49042;47.318;19.874;2023-08-21T03:27:37;26.25;;;17.17;;
62941;SDS011;49042;47.318;19.874;2023-08-21T03:30:45;21.27;;;16.55;;
62941;SDS011;49042;47.318;19.874;2023-08-21T03:33:47;19.45;;;16.87;;
62941;SDS011;49042;47.318;19.874;2023-08-21T03:36:49;18.40;;;16.37;;
62941;SDS011;49042;47.318;19.874;2023-08-21T03:39:51;22.02;;;17.83;;
62941;SDS011;49042;47.318;19.874;2023-08-21T03:42:53;24.12;;;17.08;;
62941;SDS011;49042;47.318;19.874;2023-08-21T03:45:54;21.90;;;15.85;;
62941;SDS011;49042;47.318;19.874;2023-08-21T03:48:56;18.15;;;16.35;;
62941;SDS011;49042;47.318;19.874;2023-08-21T03:51:58;29.20;;;16.65;;
62941;SDS011;49042;47.318;19.874;2023-08-21T03:55:00;24.83;;;17.45;;
62941;SDS011;49042;47.318;19.874;2023-08-21T03:58:01;20.20;;;17.23;;
62941;SDS011;49042;47.318;19.874;2023-08-21T04:01:03;20.12;;;16.85;;
62941;SDS011;49042;47.318;19.874;2023-08-21T04:04:05;18.85;;;15.77;;
62941;SDS011;49042;47.318;19.874;2023-08-21T04:07:07;17.77;;;15.85;;
62941;SDS011;49042;47.318;19.874;2023-08-21T04:10:09;20.17;;;16.73;;
62941;SDS011;49042;47.318;19.874;2023-08-21T04:13:10;21.92;;;16.67;;
62941;SDS011;49042;47.318;19.874;2023-08-21T04:16:12;24.10;;;16.65;;
62941;SDS011;49042;47.318;19.874;2023-08-21T04:19:14;19.25;;;16.40;;
62941;SDS011;49042;47.318;19.874;2023-08-21T04:22:16;19.40;;;16.75;;
62941;SDS011;49042;47.318;19.874;2023-08-21T04:25:18;20.70;;;16.45;;
62941;SDS011;49042;47.318;19.874;2023-08-21T04:28:19;21.87;;;16.70;;
62941;SDS011;49042;47.318;19.874;2023-08-21T04:31:21;19.33;;;16.02;;
62941;SDS011;49042;47.318;19.874;2023-08-21T04:34:23;17.65;;;15.75;;
62941;SDS011;49042;47.318;19.874;2023-08-21T04:37:25;21.87;;;16.12;;
62941;SDS011;49042;47.318;19.874;2023-08-21T04:40:26;20.58;;;16.65;;
62941;SDS011;49042;47.318;19.874;2023-08-21T04:43:28;21.50;;;16.15;;
62941;SDS011;49042;47.318;19.874;2023-08-21T04:46:30;17.17;;;15.02;;
62941;SDS011;49042;47.318;19.874;2023-08-21T04:49:31;18.67;;;15.98;;
62941;SDS011;49042;47.318;19.874;2023-08-21T04:52:33;17.83;;;15.95;;
62941;SDS011;49042;47.318;19.874;2023-08-21T04:55:35;16.77;;;14.98;;
62941;SDS011;49042;47.318;19.874;2023-08-21T04:58:38;16.95;;;15.15;;
62941;SDS011;49042;47.318;19.874;2023-08-21T05:01:39;19.45;;;15.63;;
62941;SDS011;49042;47.318;19.874;2023-08-21T05:04:44;20.10;;;15.38;;
62941;SDS011;49042;47.318;19.874;2023-08-21T05:07:46;17.15;;;15.18;;
62941;SDS011;49042;47.318;19.874;2023-08-21T05:10:48;20.70;;;15.68;;
62941;SDS011;49042;47.318;19.874;2023-08-21T05:13:50;16.42;;;14.73;;
62941;SDS011;49042;47.318;19.874;2023-08-21T05:16:51;22.67;;;15.23;;
62941;SDS011;49042;47.318;19.874;2023-08-21T05:19:53;16.37;;;14.60;;
62941;SDS011;49042;47.318;19.874;2023-08-21T05:22:55;22.75;;;14.57;;
62941;SDS011;49042;47.318;19.874;2023-08-21T05:25:56;27.92;;;14.65;;
62941;SDS011;49042;47.318;19.874;2023-08-21T05:28:58;14.65;;;13.13;;
62941;SDS011;49042;47.318;19.874;2023-08-21T05:32:00;16.90;;;13.73;;
62941;SDS011;49042;47.318;19.874;2023-08-21T05:35:02;24.20;;;14.07;;
62941;SDS011;49042;47.318;19.874;2023-08-21T05:38:05;18.30;;;14.30;;
62941;SDS011;49042;47.318;19.874;2023-08-21T05:41:07;17.75;;;13.80;;
62941;SDS011;49042;47.318;19.874;2023-08-21T05:44:09;17.35;;;13.30;;
62941;SDS011;49042;47.318;19.874;2023-08-21T05:47:10;16.52;;;13.35;;
62941;SDS011;49042;47.318;19.874;2023-08-21T05:50:12;17.52;;;13.52;;
62941;SDS011;49042;47.318;19.874;2023-08-21T05:53:14;15.63;;;12.77;;
62941;SDS011;49042;47.318;19.874;2023-08-21T05:56:15;15.68;;;12.95;;
62941;SDS011;49042;47.318;19.874;2023-08-21T05:59:30;19.05;;;12.13;;
62941;SDS011;49042;47.318;19.874;2023-08-21T06:02:32;15.95;;;12.13;;
62941;SDS011;49042;47.318;19.874;2023-08-21T06:05:34;15.90;;;11.35;;
62941;SDS011;49042;47.318;19.874;2023-08-21T06:08:36;16.08;;;11.88;;
62941;SDS011;49042;47.318;19.874;2023-08-21T06:11:38;21.98;;;12.57;;
62941;SDS011;49042;47.318;19.874;2023-08-21T06:14:40;14.13;;;11.20;;
62941;SDS011;49042;47.318;19.874;2023-08-21T06:17:41;15.38;;;11.85;;
62941;SDS011;49042;47.318;19.874;2023-08-21T06:20:43;18.85;;;11.18;;
62941;SDS011;49042;47.318;19.874;2023-08-21T06:23:45;19.02;;;12.27;;
62941;SDS011;49042;47.318;19.874;2023-08-21T06:26:47;16.48;;;11.77;;
62941;SDS011;49042;47.318;19.874;2023-08-21T06:29:48;16.35;;;10.27;;
62941;SDS011;49042;47.318;19.874;2023-08-21T06:32:50;12.95;;;10.48;;
62941;SDS011;49042;47.318;19.874;2023-08-21T06:35:52;13.48;;;9.88;;
62941;SDS011;49042;47.318;19.874;2023-08-21T06:38:54;20.45;;;10.02;;
62941;SDS011;49042;47.318;19.874;2023-08-21T06:41:57;14.63;;;10.07;;
62941;SDS011;49042;47.318;19.874;2023-08-21T06:44:58;11.82;;;9.55;;
62941;SDS011;49042;47.318;19.874;2023-08-21T06:48:00;13.23;;;9.80;;
62941;SDS011;49042;47.318;19.874;2023-08-21T06:51:03;16.05;;;10.20;;
62941;SDS011;49042;47.318;19.874;2023-08-21T06:54:06;19.55;;;9.43;;
62941;SDS011;49042;47.318;19.874;2023-08-21T06:57:07;5.97;;;5.00;;
62941;SDS011;49042;47.318;19.874;2023-08-21T07:00:09;5.30;;;4.65;;
62941;SDS011;49042;47.318;19.874;2023-08-21T07:03:11;11.25;;;9.70;;
62941;SDS011;49042;47.318;19.874;2023-08-21T07:06:13;8.35;;;5.78;;
62941;SDS011;49042;47.318;19.874;2023-08-21T07:09:15;8.20;;;6.50;;
62941;SDS011;49042;47.318;19.874;2023-08-21T07:12:17;11.80;;;9.00;;
62941;SDS011;49042;47.318;19.874;2023-08-21T07:15:18;26.98;;;6.47;;
62941;SDS011;49042;47.318;19.874;2023-08-21T07:18:20;17.00;;;6.00;;
62941;SDS011;49042;47.318;19.874;2023-08-21T07:21:22;15.80;;;7.43;;
62941;SDS011;49042;47.318;19.874;2023-08-21T07:24:33;12.30;;;7.57;;
62941;SDS011;49042;47.318;19.874;2023-08-21T07:27:35;11.95;;;7.37;;
62941;SDS011;49042;47.318;19.874;2023-08-21T07:30:37;16.35;;;8.20;;
62941;SDS011;49042;47.318;19.874;2023-08-21T07:33:42;7.68;;;6.50;;
62941;SDS011;49042;47.318;19.874;2023-08-21T07:36:44;16.58;;;6.93;;
62941;SDS011;49042;47.318;19.874;2023-08-21T07:39:45;9.63;;;6.60;;
62941;SDS011;49042;47.318;19.874;2023-08-21T07:42:47;11.05;;;6.15;;
62941;SDS011;49042;47.318;19.874;2023-08-21T07:45:49;9.90;;;5.80;;
62941;SDS011;49042;47.318;19.874;2023-08-21T07:48:52;9.25;;;5.62;;
62941;SDS011;49042;47.318;19.874;2023-08-21T07:51:54;9.15;;;6.18;;
62941;SDS011;49042;47.318;19.874;2023-08-21T07:54:56;9.25;;;5.78;;
62941;SDS011;49042;47.318;19.874;2023-08-21T07:57:58;8.82;;;5.37;;
62941;SDS011;49042;47.318;19.874;2023-08-21T08:00:59;7.95;;;5.50;;
62941;SDS011;49042;47.318;19.874;2023-08-21T08:04:03;10.90;;;6.35;;
62941;SDS011;49042;47.318;19.874;2023-08-21T08:07:05;7.40;;;5.07;;
62941;SDS011;49042;47.318;19.874;2023-08-21T08:10:06;9.57;;;6.80;;
62941;SDS011;49042;47.318;19.874;2023-08-21T08:13:08;6.90;;;4.82;;
62941;SDS011;49042;47.318;19.874;2023-08-21T08:16:10;13.18;;;5.10;;
62941;SDS011;49042;47.318;19.874;2023-08-21T08:19:12;8.27;;;5.07;;
62941;SDS011;49042;47.318;19.874;2023-08-21T08:22:13;7.72;;;4.40;;
62941;SDS011;49042;47.318;19.874;2023-08-21T08:25:15;8.25;;;4.45;;
62941;SDS011;49042;47.318;19.874;2023-08-21T08:28:18;6.30;;;4.47;;
62941;SDS011;49042;47.318;19.874;2023-08-21T08:31:20;4.85;;;4.30;;
62941;SDS011;49042;47.318;19.874;2023-08-21T08:34:22;11.73;;;4.75;;
62941;SDS011;49042;47.318;19.874;2023-08-21T08:37:23;6.15;;;4.47;;
62941;SDS011;49042;47.318;19.874;2023-08-21T08:40:25;7.45;;;4.20;;
62941;SDS011;49042;47.318;19.874;2023-08-21T08:43:27;5.70;;;3.92;;
62941;SDS011;49042;47.318;19.874;2023-08-21T08:46:30;8.75;;;3.90;;
62941;SDS011;49042;47.318;19.874;2023-08-21T08:49:32;7.32;;;4.20;;
62941;SDS011;49042;47.318;19.874;2023-08-21T08:52:34;4.37;;;3.50;;
62941;SDS011;49042;47.318;19.874;2023-08-21T08:55:38;7.40;;;3.87;;
62941;SDS011;49042;47.318;19.874;2023-08-21T08:58:39;8.50;;;3.50;;
62941;SDS011;49042;47.318;19.874;2023-08-21T09:01:44;9.65;;;3.60;;
62941;SDS011;49042;47.318;19.874;2023-08-21T09:04:45;5.72;;;3.47;;
62941;SDS011;49042;47.318;19.874;2023-08-21T09:07:58;10.02;;;3.60;;
62941;SDS011;49042;47.318;19.874;2023-08-21T09:11:03;5.90;;;3.30;;
62941;SDS011;49042;47.318;19.874;2023-08-21T09:14:05;4.50;;;3.40;;
62941;SDS011;49042;47.318;19.874;2023-08-21T09:17:07;7.95;;;4.15;;
62941;SDS011;49042;47.318;19.874;2023-08-21T09:20:09;7.12;;;3.85;;
62941;SDS011;49042;47.318;19.874;2023-08-21T09:23:15;10.05;;;3.58;;
62941;SDS011;49042;47.318;19.874;2023-08-21T09:26:20;3.72;;;3.22;;
62941;SDS011;49042;47.318;19.874;2023-08-21T09:29:23;4.85;;;3.45;;
62941;SDS011;49042;47.318;19.874;2023-08-21T09:32:25;3.72;;;3.22;;
62941;SDS011;49042;47.318;19.874;2023-08-21T09:35:27;6.05;;;3.10;;
62941;SDS011;49042;47.318;19.874;2023-08-21T09:38:28;4.37;;;3.28;;
62941;SDS011;49042;47.318;19.874;2023-08-21T09:41:31;12.10;;;3.00;;
62941;SDS011;49042;47.318;19.874;2023-08-21T09:44:39;6.62;;;3.10;;
62941;SDS011;49042;47.318;19.874;2023-08-21T09:47:42;7.00;;;3.05;;
62941;SDS011;49042;47.318;19.874;2023-08-21T09:50:46;4.93;;;3.10;;
62941;SDS011;49042;47.318;19.874;2023-08-21T09:53:48;4.80;;;2.70;;
62941;SDS011;49042;47.318;19.874;2023-08-21T09:56:50;9.77;;;2.90;;
62941;SDS011;49042;47.318;19.874;2023-08-21T09:59:53;7.20;;;3.00;;
62941;SDS011;49042;47.318;19.874;2023-08-21T10:03:02;4.93;;;3.30;;
62941;SDS011;49042;47.318;19.874;2023-08-21T10:06:05;3.30;;;2.72;;
62941;SDS011;49042;47.318;19.874;2023-08-21T10:09:09;5.20;;;3.10;;
62941;SDS011;49042;47.318;19.874;2023-08-21T10:12:12;6.47;;;2.90;;
62941;SDS011;49042;47.318;19.874;2023-08-21T10:15:15;4.90;;;2.85;;
62941;SDS011;49042;47.318;19.874;2023-08-21T10:18:24;9.52;;;2.85;;
62941;SDS011;49042;47.318;19.874;2023-08-21T10:21:34;4.78;;;2.83;;
62941;SDS011;49042;47.318;19.874;2023-08-21T10:24:37;6.22;;;2.87;;
62941;SDS011;49042;47.318;19.874;2023-08-21T10:27:40;5.00;;;2.90;;
62941;SDS011;49042;47.318;19.874;2023-08-21T10:30:43;10.55;;;2.83;;
62941;SDS011;49042;47.318;19.874;2023-08-21T10:33:45;10.73;;;2.90;;
62941;SDS011;49042;47.318;19.874;2023-08-21T10:40:01;7.45;;;2.65;;
62941;SDS011;49042;47.318;19.874;2023-08-21T10:43:04;3.37;;;2.83;;
62941;SDS011;49042;47.318;19.874;2023-08-21T10:46:06;8.77;;;2.97;;
62941;SDS011;49042;47.318;19.874;2023-08-21T10:49:10;5.18;;;2.92;;
62941;SDS011;49042;47.318;19.874;2023-08-21T10:52:11;3.28;;;2.70;;
62941;SDS011;49042;47.318;19.874;2023-08-21T10:55:14;5.70;;;2.80;;
62941;SDS011;49042;47.318;19.874;2023-08-21T10:58:17;3.90;;;2.67;;
62941;SDS011;49042;47.318;19.874;2023-08-21T11:01:18;3.62;;;2.85;;
62941;SDS011;49042;47.318;19.874;2023-08-21T11:04:20;5.35;;;3.17;;
62941;SDS011;49042;47.318;19.874;2023-08-21T11:07:22;6.30;;;3.00;;
62941;SDS011;49042;47.318;19.874;2023-08-21T11:10:24;3.08;;;2.78;;
62941;SDS011;49042;47.318;19.874;2023-08-21T11:13:30;6.47;;;3.20;;
62941;SDS011;49042;47.318;19.874;2023-08-21T11:16:33;5.82;;;3.35;;
62941;SDS011;49042;47.318;19.874;2023-08-21T11:19:35;4.55;;;3.03;;
62941;SDS011;49042;47.318;19.874;2023-08-21T11:22:37;4.10;;;2.80;;
62941;SDS011;49042;47.318;19.874;2023-08-21T11:25:39;3.40;;;2.80;;
62941;SDS011;49042;47.318;19.874;2023-08-21T11:28:41;7.55;;;3.15;;
62941;SDS011;49042;47.318;19.874;2023-08-21T11:31:45;4.68;;;2.80;;
62941;SDS011;49042;47.318;19.874;2023-08-21T11:34:55;3.60;;;2.80;;
62941;SDS011;49042;47.318;19.874;2023-08-21T11:37:58;3.95;;;3.03;;
62941;SDS011;49042;47.318;19.874;2023-08-21T11:41:01;4.55;;;3.25;;
62941;SDS011;49042;47.318;19.874;2023-08-21T11:44:06;3.87;;;2.90;;
62941;SDS011;49042;47.318;19.874;2023-08-21T11:47:09;8.77;;;3.17;;
62941;SDS011;49042;47.318;19.874;2023-08-21T11:50:11;7.40;;;2.92;;
62941;SDS011;49042;47.318;19.874;2023-08-21T11:53:29;8.20;;;3.33;;
62941;SDS011;49042;47.318;19.874;2023-08-21T11:56:35;12.00;;;3.20;;
62941;SDS011;49042;47.318;19.874;2023-08-21T11:59:38;5.15;;;3.03;;
62941;SDS011;49042;47.318;19.874;2023-08-21T12:02:40;4.05;;;3.03;;
62941;SDS011;49042;47.318;19.874;2023-08-21T12:05:42;3.70;;;3.10;;
62941;SDS011;49042;47.318;19.874;2023-08-21T12:08:45;3.45;;;3.00;;
62941;SDS011;49042;47.318;19.874;2023-08-21T12:11:47;6.25;;;3.00;;
62941;SDS011;49042;47.318;19.874;2023-08-21T12:14:48;8.73;;;3.15;;
62941;SDS011;49042;47.318;19.874;2023-08-21T12:17:50;8.55;;;3.20;;
62941;SDS011;49042;47.318;19.874;2023-08-21T12:20:52;4.78;;;3.12;;
62941;SDS011;49042;47.318;19.874;2023-08-21T12:23:54;4.35;;;2.80;;
62941;SDS011;49042;47.318;19.874;2023-08-21T12:26:55;5.62;;;3.25;;
62941;SDS011;49042;47.318;19.874;2023-08-21T12:29:57;7.07;;;3.30;;
62941;SDS011;49042;47.318;19.874;2023-08-21T12:32:59;4.70;;;3.20;;
62941;SDS011;49042;47.318;19.874;2023-08-21T12:36:20;3.60;;;3.30;;
62941;SDS011;49042;47.318;19.874;2023-08-21T12:39:22;5.68;;;3.45;;
62941;SDS011;49042;47.318;19.874;2023-08-21T12:42:24;5.05;;;3.30;;
62941;SDS011;49042;47.318;19.874;2023-08-21T12:45:25;10.45;;;3.08;;
62941;SDS011;49042;47.318;19.874;2023-08-21T12:48:27;9.52;;;3.20;;
62941;SDS011;49042;47.318;19.874;2023-08-21T12:51:29;5.72;;;3.50;;
62941;SDS011;49042;47.318;19.874;2023-08-21T12:54:31;7.57;;;3.10;;
62941;SDS011;49042;47.318;19.874;2023-08-21T12:57:33;9.93;;;3.20;;
62941;SDS011;49042;47.318;19.874;2023-08-21T13:00:35;4.12;;;3.30;;
62941;SDS011;49042;47.318;19.874;2023-08-21T13:03:37;4.15;;;3.10;;
62941;SDS011;49042;47.318;19.874;2023-08-21T13:06:39;6.30;;;3.08;;
62941;SDS011;49042;47.318;19.874;2023-08-21T13:09:40;13.85;;;3.62;;
62941;SDS011;49042;47.318;19.874;2023-08-21T13:12:42;4.97;;;3.42;;
62941;SDS011;49042;47.318;19.874;2023-08-21T13:15:45;7.15;;;3.53;;
62941;SDS011;49042;47.318;19.874;2023-08-21T13:18:48;4.30;;;3.50;;
62941;SDS011;49042;47.318;19.874;2023-08-21T13:21:49;5.05;;;3.35;;
62941;SDS011;49042;47.318;19.874;2023-08-21T13:24:51;5.43;;;3.42;;
62941;SDS011;49042;47.318;19.874;2023-08-21T13:27:53;4.37;;;3.45;;
62941;SDS011;49042;47.318;19.874;2023-08-21T13:30:55;9.18;;;4.12;;
62941;SDS011;49042;47.318;19.874;2023-08-21T13:33:57;7.12;;;3.75;;
62941;SDS011;49042;47.318;19.874;2023-08-21T13:36:58;6.00;;;4.30;;
62941;SDS011;49042;47.318;19.874;2023-08-21T13:40:00;5.80;;;4.32;;
62941;SDS011;49042;47.318;19.874;2023-08-21T13:43:13;6.12;;;4.55;;
62941;SDS011;49042;47.318;19.874;2023-08-21T13:46:15;6.85;;;4.35;;
62941;SDS011;49042;47.318;19.874;2023-08-21T13:49:16;7.12;;;4.78;;
62941;SDS011;49042;47.318;19.874;2023-08-21T13:52:18;6.85;;;4.70;;
62941;SDS011;49042;47.318;19.874;2023-08-21T13:55:20;8.88;;;4.80;;
62941;SDS011;49042;47.318;19.874;2023-08-21T13:58:21;12.73;;;5.05;;
62941;SDS011;49042;47.318;19.874;2023-08-21T14:01:23;8.07;;;5.20;;
62941;SDS011;49042;47.318;19.874;2023-08-21T14:04:25;8.30;;;5.07;;
62941;SDS011;49042;47.318;19.874;2023-08-21T14:07:27;6.25;;;5.10;;
62941;SDS011;49042;47.318;19.874;2023-08-21T14:10:28;10.93;;;4.85;;
62941;SDS011;49042;47.318;19.874;2023-08-21T14:13:31;11.40;;;5.00;;
62941;SDS011;49042;47.318;19.874;2023-08-21T14:16:33;8.57;;;4.78;;
62941;SDS011;49042;47.318;19.874;2023-08-21T14:19:35;7.28;;;5.00;;
62941;SDS011;49042;47.318;19.874;2023-08-21T14:22:37;9.50;;;4.65;;
62941;SDS011;49042;47.318;19.874;2023-08-21T14:25:39;4.93;;;4.45;;
62941;SDS011;49042;47.318;19.874;2023-08-21T14:28:41;6.10;;;4.47;;
62941;SDS011;49042;47.318;19.874;2023-08-21T14:31:42;12.80;;;4.90;;
62941;SDS011;49042;47.318;19.874;2023-08-21T14:34:44;6.20;;;4.60;;
62941;SDS011;49042;47.318;19.874;2023-08-21T14:37:47;6.57;;;4.50;;
62941;SDS011;49042;47.318;19.874;2023-08-21T14:40:48;6.72;;;5.10;;
62941;SDS011;49042;47.318;19.874;2023-08-21T14:43:51;15.10;;;4.43;;
62941;SDS011;49042;47.318;19.874;2023-08-21T14:46:53;5.62;;;4.20;;
62941;SDS011;49042;47.318;19.874;2023-08-21T14:49:59;10.15;;;4.78;;
62941;SDS011;49042;47.318;19.874;2023-08-21T14:53:01;7.18;;;4.80;;
62941;SDS011;49042;47.318;19.874;2023-08-21T14:56:03;7.15;;;4.50;;
62941;SDS011;49042;47.318;19.874;2023-08-21T14:59:05;6.35;;;4.60;;
62941;SDS011;49042;47.318;19.874;2023-08-21T15:02:07;5.53;;;4.10;;
62941;SDS011;49042;47.318;19.874;2023-08-21T15:05:09;10.27;;;4.18;;
62941;SDS011;49042;47.318;19.874;2023-08-21T15:08:11;8.38;;;4.35;;
62941;SDS011;49042;47.318;19.874;2023-08-21T15:11:13;9.55;;;4.35;;
62941;SDS011;49042;47.318;19.874;2023-08-21T15:14:14;10.00;;;4.47;;
62941;SDS011;49042;47.318;19.874;2023-08-21T15:17:17;5.37;;;4.70;;
62941;SDS011;49042;47.318;19.874;2023-08-21T15:20:34;5.07;;;4.20;;
62941;SDS011;49042;47.318;19.874;2023-08-21T15:23:36;5.40;;;4.78;;
62941;SDS011;49042;47.318;19.874;2023-08-21T15:26:38;6.15;;;4.95;;
62941;SDS011;49042;47.318;19.874;2023-08-21T15:29:40;6.62;;;4.50;;
62941;SDS011;49042;47.318;19.874;2023-08-21T15:32:41;7.60;;;4.85;;
62941;SDS011;49042;47.318;19.874;2023-08-21T15:35:45;6.70;;;4.90;;
62941;SDS011;49042;47.318;19.874;2023-08-21T15:38:47;7.82;;;4.50;;
62941;SDS011;49042;47.318;19.874;2023-08-21T15:41:49;9.45;;;4.68;;
62941;SDS011;49042;47.318;19.874;2023-08-21T15:44:50;11.27;;;5.00;;
62941;SDS011;49042;47.318;19.874;2023-08-21T15:47:52;5.55;;;4.90;;
62941;SDS011;49042;47.318;19.874;2023-08-21T15:50:54;9.23;;;5.22;;
62941;SDS011;49042;47.318;19.874;2023-08-21T15:53:56;11.02;;;4.97;;
62941;SDS011;49042;47.318;19.874;2023-08-21T15:56:58;9.15;;;5.18;;
62941;SDS011;49042;47.318;19.874;2023-08-21T16:00:02;18.30;;;6.03;;
62941;SDS011;49042;47.318;19.874;2023-08-21T16:03:07;6.95;;;4.68;;
62941;SDS011;49042;47.318;19.874;2023-08-21T16:06:08;5.78;;;5.07;;
62941;SDS011;49042;47.318;19.874;2023-08-21T16:09:11;11.45;;;5.20;;
62941;SDS011;49042;47.318;19.874;2023-08-21T16:12:13;13.32;;;5.32;;
62941;SDS011;49042;47.318;19.874;2023-08-21T16:15:15;17.20;;;6.03;;
62941;SDS011;49042;47.318;19.874;2023-08-21T16:18:17;10.50;;;5.62;;
62941;SDS011;49042;47.318;19.874;2023-08-21T16:21:18;17.75;;;5.72;;
62941;SDS011;49042;47.318;19.874;2023-08-21T16:24:20;8.77;;;5.10;;
62941;SDS011;49042;47.318;19.874;2023-08-21T16:27:22;9.65;;;5.70;;
62941;SDS011;49042;47.318;19.874;2023-08-21T16:30:24;12.30;;;4.95;;
62941;SDS011;49042;47.318;19.874;2023-08-21T16:33:25;10.82;;;5.45;;
62941;SDS011;49042;47.318;19.874;2023-08-21T16:36:27;9.18;;;5.10;;
62941;SDS011;49042;47.318;19.874;2023-08-21T16:39:29;6.25;;;4.90;;
62941;SDS011;49042;47.318;19.874;2023-08-21T16:42:31;19.17;;;5.25;;
62941;SDS011;49042;47.318;19.874;2023-08-21T16:45:32;10.90;;;5.28;;
62941;SDS011;49042;47.318;19.874;2023-08-21T16:48:34;11.98;;;5.70;;
62941;SDS011;49042;47.318;19.874;2023-08-21T16:51:36;9.23;;;5.45;;
62941;SDS011;49042;47.318;19.874;2023-08-21T16:54:38;20.77;;;5.80;;
62941;SDS011;49042;47.318;19.874;2023-08-21T16:57:39;6.43;;;5.57;;
62941;SDS011;49042;47.318;19.874;2023-08-21T17:00:41;15.15;;;5.87;;
62941;SDS011;49042;47.318;19.874;2023-08-21T17:03:43;8.02;;;5.85;;
62941;SDS011;49042;47.318;19.874;2023-08-21T17:06:45;8.63;;;5.85;;
62941;SDS011;49042;47.318;19.874;2023-08-21T17:09:48;12.50;;;6.18;;
62941;SDS011;49042;47.318;19.874;2023-08-21T17:12:50;8.98;;;5.55;;
62941;SDS011;49042;47.318;19.874;2023-08-21T17:15:53;6.90;;;5.70;;
62941;SDS011;49042;47.318;19.874;2023-08-21T17:18:57;18.50;;;6.53;;
62941;SDS011;49042;47.318;19.874;2023-08-21T17:21:59;12.27;;;7.70;;
62941;SDS011;49042;47.318;19.874;2023-08-21T17:25:01;19.30;;;8.77;;
62941;SDS011;49042;47.318;19.874;2023-08-21T17:28:05;13.70;;;8.23;;
62941;SDS011;49042;47.318;19.874;2023-08-21T17:31:07;21.20;;;8.98;;
62941;SDS011;49042;47.318;19.874;2023-08-21T17:34:09;13.40;;;9.30;;
62941;SDS011;49042;47.318;19.874;2023-08-21T17:37:11;12.55;;;7.18;;
62941;SDS011;49042;47.318;19.874;2023-08-21T17:40:13;18.48;;;7.68;;
62941;SDS011;49042;47.318;19.874;2023-08-21T17:43:15;13.40;;;7.90;;
62941;SDS011;49042;47.318;19.874;2023-08-21T17:46:17;9.80;;;7.60;;
62941;SDS011;49042;47.318;19.874;2023-08-21T17:49:19;24.30;;;7.25;;
62941;SDS011;49042;47.318;19.874;2023-08-21T17:52:31;17.05;;;7.93;;
62941;SDS011;49042;47.318;19.874;2023-08-21T17:55:33;11.95;;;7.75;;
62941;SDS011;49042;47.318;19.874;2023-08-21T17:58:38;9.90;;;8.27;;